Time;durP1;ratioP1;P1;durP2;ratioP2;P2;SDS_P1;SDS_P2;PMS_P1;PMS_P2;Temp;Humidity;BMP_temperature;BMP_pressure;BME280_temperature;BME280_humidity;BME280_pressure;Samples;Min_cycle;Max_cycle;Signal;HPM_P1;HPM_P2
2023/08/28 00:00:48;;;;;;;1.30;0.50;;;;;;;16.40;88.94;100136.75;5047746;28;20094;-66
2023/08/28 00:03:14;;;;;;;0.57;0.57;;;;;;;16.37;89.09;100147.69;5042812;28;20037;-66
2023/08/28 00:05:39;;;;;;;0.70;0.70;;;;;;;16.37;89.63;100144.97;5048137;28;20086;-66
2023/08/28 00:08:05;;;;;;;1.23;0.77;;;;;;;16.42;89.22;100139.06;5050462;28;20029;-66
2023/08/28 00:10:31;;;;;;;0.55;0.50;;;;;;;16.39;89.32;100148.81;5049366;28;20517;-66
2023/08/28 00:12:56;;;;;;;1.08;0.60;;;;;;;16.36;89.48;100146.91;5049770;28;20056;-66
2023/08/28 00:15:22;;;;;;;1.10;0.70;;;;;;;16.36;89.74;100146.13;5031569;28;20037;-66
2023/08/28 00:17:48;;;;;;;1.45;0.90;;;;;;;16.29;89.44;100138.84;5051314;28;20393;-66
2023/08/28 00:20:15;;;;;;;0.65;0.65;;;;;;;16.27;89.80;100139.25;5047400;28;20036;-66
2023/08/28 00:22:41;;;;;;;0.90;0.70;;;;;;;16.26;89.90;100129.53;5049456;28;20025;-65
2023/08/28 00:25:07;;;;;;;1.25;0.80;;;;;;;16.25;90.24;100148.97;5050533;28;20039;-65
2023/08/28 00:27:33;;;;;;;2.55;0.98;;;;;;;16.24;90.20;100150.91;5052075;28;20083;-67
2023/08/28 00:29:59;;;;;;;3.60;1.00;;;;;;;16.23;90.01;100149.38;5034426;28;20039;-65
2023/08/28 00:32:26;;;;;;;1.05;0.95;;;;;;;16.19;90.39;100145.94;5032016;28;20055;-68
2023/08/28 00:34:52;;;;;;;1.25;0.73;;;;;;;16.14;90.93;100135.50;5044832;28;20103;-68
2023/08/28 00:37:17;;;;;;;1.75;0.77;;;;;;;16.17;90.89;100139.34;5042613;28;20032;-66
2023/08/28 00:39:43;;;;;;;2.05;1.00;;;;;;;16.20;90.39;100135.84;5043107;28;20664;-64
2023/08/28 00:42:08;;;;;;;1.48;0.60;;;;;;;16.21;90.63;100132.72;5050301;28;20038;-68
2023/08/28 00:44:34;;;;;;;1.02;0.77;;;;;;;16.24;90.14;100140.03;5034298;28;20033;-68
2023/08/28 00:46:59;;;;;;;1.52;0.90;;;;;;;16.23;90.51;100135.03;5041768;28;20069;-68
2023/08/28 00:49:26;;;;;;;0.63;0.57;;;;;;;16.19;90.88;100135.06;5029210;28;20045;-66
2023/08/28 00:51:52;;;;;;;1.85;1.02;;;;;;;16.28;90.36;100140.00;5031853;28;20044;-67
2023/08/28 00:54:17;;;;;;;1.65;1.17;;;;;;;16.21;90.61;100131.94;5032353;28;20044;-65
2023/08/28 00:56:43;;;;;;;0.88;0.60;;;;;;;16.21;90.31;100135.44;5050541;28;20045;-64
2023/08/28 00:59:14;;;;;;;1.30;1.20;;;;;;;16.19;90.24;100137.78;5025030;28;20034;-66
2023/08/28 01:01:40;;;;;;;0.77;0.70;;;;;;;16.16;90.33;100140.53;5032510;28;20124;-64
2023/08/28 01:04:07;;;;;;;1.48;0.60;;;;;;;16.07;90.51;100138.28;5027364;28;20064;-68
2023/08/28 01:06:54;;;;;;;0.98;0.88;;;;;;;16.03;90.76;100139.50;5047034;28;20452;-66
2023/08/28 01:09:48;;;;;;;1.23;0.55;;;;;;;15.98;91.03;100154.31;5033442;28;20500;-67
2023/08/28 01:12:26;;;;;;;0.95;0.75;;;;;;;16.03;91.39;100155.78;5013001;28;20060;-66
2023/08/28 01:15:00;;;;;;;1.25;0.77;;;;;;;16.10;91.22;100139.44;5032898;28;20037;-66
2023/08/28 01:17:27;;;;;;;1.40;0.60;;;;;;;16.16;91.00;100138.56;5030130;28;20088;-66
2023/08/28 01:19:55;;;;;;;0.80;0.80;;;;;;;16.11;91.08;100146.41;5038596;28;20057;-68
2023/08/28 01:22:25;;;;;;;0.60;0.60;;;;;;;16.14;90.40;100143.66;5027205;28;20021;-67
2023/08/28 01:25:12;;;;;;;4.63;0.80;;;;;;;16.16;90.58;100144.00;5021670;28;20494;-68
2023/08/28 01:27:38;;;;;;;0.77;0.60;;;;;;;16.15;90.52;100137.06;5031282;28;20115;-68
2023/08/28 01:30:10;;;;;;;1.05;0.55;;;;;;;16.07;90.73;100137.53;5033700;28;20025;-68
2023/08/28 01:32:37;;;;;;;1.17;0.90;;;;;;;16.08;90.44;100131.72;5029084;28;20026;-68
2023/08/28 01:35:09;;;;;;;1.23;1.00;;;;;;;16.03;91.14;100128.63;5024602;28;20041;-67
2023/08/28 01:37:43;;;;;;;1.40;0.88;;;;;;;16.08;90.83;100122.78;5029115;28;20029;-68
2023/08/28 01:40:13;;;;;;;1.92;0.85;;;;;;;16.03;91.39;100117.75;5042457;28;20033;-68
2023/08/28 01:42:39;;;;;;;1.67;0.93;;;;;;;16.06;91.07;100122.41;5036146;28;20025;-68
2023/08/28 01:45:06;;;;;;;1.20;0.63;;;;;;;16.01;91.47;100115.47;5029049;28;20095;-65
2023/08/28 01:47:31;;;;;;;1.27;0.68;;;;;;;16.03;91.53;100117.75;5024318;28;20079;-68
2023/08/28 01:49:58;;;;;;;1.15;0.73;;;;;;;16.00;91.46;100119.38;5042228;28;20037;-63
2023/08/28 01:52:23;;;;;;;2.47;0.90;;;;;;;16.00;91.01;100121.31;5031393;28;20063;-68
2023/08/28 01:54:49;;;;;;;0.60;0.50;;;;;;;15.98;90.98;100121.72;5047309;28;20073;-67
2023/08/28 01:57:14;;;;;;;3.40;0.80;;;;;;;16.03;91.17;100129.41;5037578;28;20029;-68
2023/08/28 01:59:40;;;;;;;1.77;0.75;;;;;;;15.98;91.62;100132.59;5032258;28;20031;-68
2023/08/28 02:02:05;;;;;;;1.13;0.60;;;;;;;16.04;91.63;100132.91;5031874;28;20045;-67
2023/08/28 02:04:31;;;;;;;2.22;1.17;;;;;;;16.06;91.67;100131.34;5030927;28;20028;-67
2023/08/28 02:06:56;;;;;;;2.67;0.85;;;;;;;16.09;92.02;100132.44;5010117;28;20040;-67
2023/08/28 02:09:22;;;;;;;0.90;0.90;;;;;;;16.13;91.71;100125.81;5040798;28;20103;-66
2023/08/28 02:11:49;;;;;;;1.10;0.90;;;;;;;16.15;92.03;100123.47;5021365;28;20557;-66
2023/08/28 02:14:15;;;;;;;0.82;0.70;;;;;;;16.16;92.21;100124.25;5043184;28;20033;-68
2023/08/28 02:16:40;;;;;;;1.58;1.33;;;;;;;16.18;92.50;100136.22;5031593;28;20067;-67
2023/08/28 02:19:06;;;;;;;2.47;0.80;;;;;;;16.24;92.21;100139.28;5049758;28;20033;-67
2023/08/28 02:21:32;;;;;;;1.73;0.80;;;;;;;16.26;92.41;100136.91;5029316;28;20029;-67
2023/08/28 02:23:57;;;;;;;2.08;0.80;;;;;;;16.30;92.30;100134.19;5026974;28;20452;-67
2023/08/28 02:26:24;;;;;;;2.17;0.90;;;;;;;16.32;91.89;100123.69;5033550;28;20044;-68
2023/08/28 02:28:49;;;;;;;2.40;0.95;;;;;;;16.38;92.06;100117.38;5031488;28;20392;-67
2023/08/28 02:31:16;;;;;;;1.38;0.70;;;;;;;16.32;92.33;100123.69;5032897;28;20040;-67
2023/08/28 02:33:42;;;;;;;0.75;0.68;;;;;;;16.36;92.22;100119.72;5028512;28;20535;-68
2023/08/28 02:36:07;;;;;;;1.92;1.05;;;;;;;16.35;92.87;100115.47;5035485;28;20052;-68
2023/08/28 02:38:33;;;;;;;1.48;0.70;;;;;;;16.39;92.50;100121.66;5047457;28;20078;-69
2023/08/28 02:41:07;;;;;;;1.02;0.70;;;;;;;16.40;92.81;100133.25;5046360;28;20040;-67
2023/08/28 02:43:33;;;;;;;1.60;0.82;;;;;;;16.46;92.52;100129.69;5048299;28;20033;-68
2023/08/28 02:45:59;;;;;;;2.75;1.02;;;;;;;16.35;92.58;100123.63;5022703;28;20032;-67
2023/08/28 02:48:26;;;;;;;3.13;1.10;;;;;;;16.36;93.18;100127.88;5020974;28;20417;-68
2023/08/28 02:50:52;;;;;;;2.53;1.00;;;;;;;16.38;93.45;100128.25;5031306;28;20036;-68
2023/08/28 02:53:17;;;;;;;1.45;0.80;;;;;;;16.47;92.79;100122.31;5030483;28;20024;-67
2023/08/28 02:56:23;;;;;;;1.00;0.85;;;;;;;16.49;92.46;100130.88;5042875;28;20493;-66
2023/08/28 02:58:49;;;;;;;1.50;0.90;;;;;;;16.54;92.40;100120.31;5038222;28;20090;-68
2023/08/28 03:01:15;;;;;;;2.08;1.33;;;;;;;16.48;92.70;100135.53;5033469;28;20120;-68
2023/08/28 03:03:41;;;;;;;1.42;1.02;;;;;;;16.47;93.13;100119.59;5031107;28;20473;-68
2023/08/28 03:06:06;;;;;;;1.33;1.00;;;;;;;16.47;93.33;100123.09;5030801;28;20044;-65
2023/08/28 03:08:32;;;;;;;2.20;1.35;;;;;;;16.47;93.44;100122.31;5011393;28;20032;-68
2023/08/28 03:10:57;;;;;;;1.88;1.10;;;;;;;16.50;92.70;100114.16;5032034;28;20447;-65
2023/08/28 03:13:23;;;;;;;1.88;1.17;;;;;;;16.48;93.56;100127.38;5031254;28;20041;-66
2023/08/28 03:15:48;;;;;;;1.63;1.20;;;;;;;16.50;93.40;100126.97;5028831;28;20402;-66
2023/08/28 03:18:14;;;;;;;1.40;1.08;;;;;;;16.55;92.85;100135.44;5009265;28;20021;-66
2023/08/28 03:20:41;;;;;;;1.30;1.15;;;;;;;16.58;92.61;100133.88;5029512;28;20025;-66
2023/08/28 03:23:09;;;;;;;1.52;1.23;;;;;;;16.57;93.07;100138.53;5046424;28;20044;-66
2023/08/28 03:25:55;;;;;;;1.75;1.48;;;;;;;16.55;93.13;100149.03;5031732;28;20086;-66
2023/08/28 03:28:20;;;;;;;1.73;0.98;;;;;;;16.56;93.14;100144.38;4981153;28;20046;-66
2023/08/28 03:30:47;;;;;;;2.85;1.80;;;;;;;16.57;93.18;100141.25;4959317;28;20124;-66
2023/08/28 03:33:13;;;;;;;1.40;1.10;;;;;;;16.55;93.43;100149.03;4977934;28;20125;-66
2023/08/28 03:35:39;;;;;;;2.35;1.40;;;;;;;16.57;93.09;100148.66;4974210;28;20495;-66
2023/08/28 03:38:05;;;;;;;2.13;1.38;;;;;;;16.60;93.52;100158.69;5002030;28;20049;-66
2023/08/28 03:40:31;;;;;;;2.20;1.63;;;;;;;16.59;93.05;100165.31;4959969;28;20039;-66
2023/08/28 03:42:56;;;;;;;3.22;1.70;;;;;;;16.59;93.13;100176.19;5000485;28;20665;-66
2023/08/28 03:45:22;;;;;;;2.25;1.70;;;;;;;16.58;93.41;100180.88;4999727;28;20472;-66
2023/08/28 03:47:47;;;;;;;2.60;1.60;;;;;;;16.61;93.27;100190.91;4977472;28;20586;-66
2023/08/28 03:50:12;;;;;;;4.15;1.77;;;;;;;16.59;93.52;100190.53;4991745;28;20038;-66
2023/08/28 03:52:38;;;;;;;3.45;2.15;;;;;;;16.57;94.05;100194.88;4991478;28;20651;-66
2023/08/28 03:55:04;;;;;;;2.53;1.70;;;;;;;16.59;93.84;100192.50;4985146;28;20076;-66
2023/08/28 03:57:29;;;;;;;4.47;1.95;;;;;;;16.58;94.21;100188.25;4992997;28;20088;-66
2023/08/28 03:59:56;;;;;;;2.50;1.52;;;;;;;16.62;94.11;100187.03;5005453;28;20042;-66
2023/08/28 04:02:23;;;;;;;2.95;1.90;;;;;;;16.63;93.99;100193.22;4970636;28;20106;-66
2023/08/28 04:04:49;;;;;;;3.17;1.88;;;;;;;16.62;93.75;100202.56;5014885;28;20048;-66
2023/08/28 04:07:24;;;;;;;2.17;1.60;;;;;;;16.57;94.30;100211.19;5032495;28;20041;-66
2023/08/28 04:09:51;;;;;;;3.70;1.80;;;;;;;16.60;93.59;100215.78;5018761;28;20033;-66
2023/08/28 04:12:16;;;;;;;2.53;1.80;;;;;;;16.59;93.58;100216.97;5034951;28;20423;-66
2023/08/28 04:14:42;;;;;;;2.67;2.03;;;;;;;16.65;93.97;100213.41;5046928;28;20115;-66
2023/08/28 04:17:07;;;;;;;4.97;2.28;;;;;;;16.44;94.05;100215.53;5034144;28;20129;-66
2023/08/28 04:19:33;;;;;;;4.30;2.15;;;;;;;16.48;94.42;100227.97;5035056;28;20021;-66
2023/08/28 04:21:58;;;;;;;3.45;1.80;;;;;;;16.55;93.69;100224.41;5034158;28;20033;-66
2023/08/28 04:24:24;;;;;;;3.88;2.17;;;;;;;16.50;94.29;100228.34;5035031;28;20033;-66
2023/08/28 04:26:49;;;;;;;1.80;1.27;;;;;;;16.49;94.51;100209.72;5035531;28;20040;-67
2023/08/28 04:29:15;;;;;;;2.28;1.55;;;;;;;16.53;94.14;100224.03;5034815;28;20520;-66
2023/08/28 04:31:40;;;;;;;5.38;2.80;;;;;;;16.58;94.27;100227.09;5034764;28;20512;-66
2023/08/28 04:34:05;;;;;;;3.53;1.90;;;;;;;16.57;94.17;100211.94;5026630;28;20466;-66
2023/08/28 04:36:31;;;;;;;3.03;1.75;;;;;;;16.61;94.29;100212.66;5034704;28;20039;-67
2023/08/28 04:38:56;;;;;;;2.63;1.95;;;;;;;16.62;94.12;100213.44;5035816;28;20029;-67
2023/08/28 04:41:22;;;;;;;2.40;1.67;;;;;;;16.64;93.56;100194.78;5034667;28;20174;-66
2023/08/28 04:43:47;;;;;;;2.85;2.10;;;;;;;16.61;93.89;100195.56;5034193;28;20103;-66
2023/08/28 04:46:13;;;;;;;3.85;1.80;;;;;;;16.60;94.23;100196.75;5052625;28;20485;-67
2023/08/28 04:48:38;;;;;;;2.60;1.70;;;;;;;16.55;93.91;100203.41;5032032;28;20020;-67
2023/08/28 04:51:04;;;;;;;5.78;2.10;;;;;;;16.55;94.34;100192.53;5049349;28;20032;-67
2023/08/28 04:53:50;;;;;;;3.50;2.15;;;;;;;16.58;94.11;100196.41;5051269;28;20052;-66
2023/08/28 04:56:16;;;;;;;3.42;1.90;;;;;;;16.59;93.86;100195.97;4945072;28;20570;-66
2023/08/28 04:58:42;;;;;;;2.55;1.67;;;;;;;16.57;93.93;100200.31;4937138;29;20118;-66
2023/08/28 05:01:07;;;;;;;3.63;2.22;;;;;;;16.61;94.26;100195.56;4933274;29;20066;-66
2023/08/28 05:03:32;;;;;;;2.80;2.00;;;;;;;16.63;94.52;100198.66;4945884;28;20113;-66
2023/08/28 05:05:58;;;;;;;2.38;1.60;;;;;;;16.65;94.51;100180.00;4953720;28;20030;-66
2023/08/28 05:08:25;;;;;;;2.58;1.95;;;;;;;16.66;94.46;100174.16;4930826;29;20082;-66
2023/08/28 05:10:50;;;;;;;2.97;1.80;;;;;;;16.68;94.79;100179.19;4941095;28;20156;-66
2023/08/28 05:13:17;;;;;;;2.10;1.55;;;;;;;16.69;94.59;100178.78;4958055;28;20031;-66
2023/08/28 05:15:43;;;;;;;5.43;1.70;;;;;;;16.70;94.47;100174.91;4934504;29;20035;-66
2023/08/28 05:18:11;;;;;;;7.22;2.42;;;;;;;16.71;94.55;100189.25;4953136;28;20122;-66
2023/08/28 05:20:37;;;;;;;4.65;1.88;;;;;;;16.71;94.60;100187.31;4936845;29;20035;-66
2023/08/28 05:23:03;;;;;;;5.75;2.10;;;;;;;16.72;94.62;100191.56;4946064;28;20058;-66
2023/08/28 05:25:30;;;;;;;3.55;2.20;;;;;;;16.76;94.04;100173.25;4950168;28;20575;-67
2023/08/28 05:27:55;;;;;;;3.03;1.75;;;;;;;16.81;94.34;100167.34;4952107;28;20039;-66
2023/08/28 05:30:23;;;;;;;2.88;1.80;;;;;;;16.84;93.69;100166.53;4932599;28;20035;-67
2023/08/28 05:32:51;;;;;;;2.22;1.75;;;;;;;16.84;93.96;100176.66;4961720;28;20041;-67
2023/08/28 05:35:17;;;;;;;3.42;2.03;;;;;;;16.87;93.26;100171.16;5037897;28;20079;-67
2023/08/28 05:37:42;;;;;;;6.38;2.40;;;;;;;16.88;93.41;100180.84;5047008;28;20061;-66
2023/08/28 05:40:13;;;;;;;3.97;2.35;;;;;;;16.87;93.46;100178.56;5044799;28;20029;-66
2023/08/28 05:42:39;;;;;;;5.00;2.47;;;;;;;16.84;93.50;100182.09;5028303;28;20025;-67
2023/08/28 05:45:05;;;;;;;3.08;1.98;;;;;;;16.89;93.45;100181.63;5048242;28;20287;-66
2023/08/28 05:47:32;;;;;;;3.95;2.53;;;;;;;16.92;94.27;100167.19;5044575;28;20032;-66
2023/08/28 05:49:58;;;;;;;5.95;2.80;;;;;;;17.00;93.41;100152.34;5026348;28;20068;-67
2023/08/28 05:52:23;;;;;;;5.90;2.83;;;;;;;17.00;93.31;100152.34;5048576;28;20056;-67
2023/08/28 05:54:49;;;;;;;8.35;2.67;;;;;;;17.00;94.07;100160.50;5030316;28;20524;-66
2023/08/28 05:57:14;;;;;;;6.30;3.35;;;;;;;17.02;93.82;100156.19;5026707;28;20573;-66
2023/08/28 05:59:39;;;;;;;5.82;2.60;;;;;;;17.07;93.44;100157.69;5033496;28;20028;-66
2023/08/28 06:02:05;;;;;;;5.30;2.78;;;;;;;17.11;93.39;100161.13;5038672;28;20084;-66
2023/08/28 06:04:32;;;;;;;6.47;3.10;;;;;;;17.11;93.21;100167.31;5035309;28;20123;-67
2023/08/28 06:06:57;;;;;;;3.70;2.45;;;;;;;17.14;93.45;100163.81;5033170;28;20477;-67
2023/08/28 06:09:23;;;;;;;4.03;2.20;;;;;;;17.21;93.80;100162.16;5032231;28;20548;-66
2023/08/28 06:11:48;;;;;;;3.40;2.05;;;;;;;17.22;93.92;100156.28;5047593;28;20041;-67
2023/08/28 06:14:14;;;;;;;5.25;2.17;;;;;;;17.26;93.31;100167.91;5056257;28;20028;-67
2023/08/28 06:16:42;;;;;;;4.57;2.47;;;;;;;17.31;93.65;100164.72;5034918;28;20029;-67
2023/08/28 06:19:09;;;;;;;5.18;2.65;;;;;;;17.33;93.46;100165.06;5062738;28;20029;-67
2023/08/28 06:21:35;;;;;;;5.15;2.10;;;;;;;17.33;93.45;100175.97;5048981;28;20496;-66
2023/08/28 06:24:00;;;;;;;4.53;2.53;;;;;;;17.41;93.31;100169.22;5031271;28;20032;-66
2023/08/28 06:26:25;;;;;;;3.15;2.05;;;;;;;17.48;93.85;100174.59;5024230;28;20096;-66
2023/08/28 06:28:51;;;;;;;2.83;1.85;;;;;;;17.55;93.72;100179.16;5031394;28;20048;-67
2023/08/28 06:31:16;;;;;;;4.35;2.20;;;;;;;17.65;93.90;100184.41;5028351;28;20516;-67
2023/08/28 06:33:42;;;;;;;3.45;1.65;;;;;;;17.78;93.53;100190.06;5051606;28;20029;-67
2023/08/28 06:36:07;;;;;;;3.45;1.65;;;;;;;17.99;93.61;100195.16;5048771;28;20047;-67
2023/08/28 06:38:33;;;;;;;3.10;1.77;;;;;;;18.16;93.49;100191.34;5051701;28;20040;-67
2023/08/28 06:41:00;;;;;;;2.10;1.55;;;;;;;18.24;92.52;100203.66;5044673;28;20047;-67
2023/08/28 06:43:26;;;;;;;2.92;1.83;;;;;;;18.42;92.47;100208.78;5050553;28;20028;-67
2023/08/28 06:45:51;;;;;;;5.50;2.42;;;;;;;18.60;92.10;100195.59;5051417;28;20040;-67
2023/08/28 06:48:17;;;;;;;3.05;1.88;;;;;;;18.73;91.51;100193.78;5050665;28;20115;-67
2023/08/28 06:50:42;;;;;;;4.47;1.30;;;;;;;18.88;90.87;100203.97;5048727;28;20017;-67
2023/08/28 06:53:07;;;;;;;1.80;1.38;;;;;;;19.02;90.35;100202.91;5050886;28;20064;-67
2023/08/28 06:55:35;;;;;;;2.40;1.67;;;;;;;19.16;89.61;100210.81;5047430;28;20068;-67
2023/08/28 06:58:01;;;;;;;2.42;1.55;;;;;;;19.28;89.10;100217.56;5033088;28;20104;-66
2023/08/28 07:00:26;;;;;;;2.40;1.17;;;;;;;19.46;88.43;100224.19;5033579;28;20116;-66
2023/08/28 07:02:52;;;;;;;1.73;1.15;;;;;;;19.63;87.43;100225.72;5031540;28;20025;-67
2023/08/28 07:05:18;;;;;;;1.08;0.90;;;;;;;19.73;86.78;100229.41;5033727;28;20090;-66
2023/08/28 07:07:43;;;;;;;1.73;1.00;;;;;;;19.83;86.03;100227.59;5032499;28;20051;-66
2023/08/28 07:10:09;;;;;;;1.13;1.05;;;;;;;20.00;85.55;100229.13;5051463;28;20029;-67
2023/08/28 07:12:34;;;;;;;1.70;0.93;;;;;;;20.09;84.62;100240.25;5043144;28;20053;-66
2023/08/28 07:15:18;;;;;;;1.40;1.05;;;;;;;20.29;83.72;100238.97;5049078;28;20055;-66
2023/08/28 07:17:43;;;;;;;2.20;0.90;;;;;;;20.44;82.60;100251.06;5027291;28;20045;-67
2023/08/28 07:20:09;;;;;;;0.73;0.55;;;;;;;20.58;81.87;100260.84;5051109;28;20033;-67
2023/08/28 07:22:35;;;;;;;0.70;0.60;;;;;;;20.66;81.05;100262.97;5032877;28;20021;-67
2023/08/28 07:25:01;;;;;;;0.80;0.68;;;;;;;20.63;81.41;100266.56;5050657;28;20044;-67
2023/08/28 07:27:29;;;;;;;0.98;0.73;;;;;;;20.78;80.69;100266.97;5046785;28;20081;-66
2023/08/28 07:29:55;;;;;;;0.98;0.80;;;;;;;20.82;80.43;100266.84;5047451;28;20078;-68
2023/08/28 07:32:20;;;;;;;3.50;0.60;;;;;;;20.88;79.60;100279.59;5050245;28;20028;-66
2023/08/28 07:34:46;;;;;;;1.83;0.95;;;;;;;20.98;80.27;100269.53;5051075;28;20401;-67
2023/08/28 07:37:11;;;;;;;0.90;0.65;;;;;;;21.19;79.51;100279.91;5047588;28;20071;-67
2023/08/28 07:39:37;;;;;;;1.10;0.65;;;;;;;21.33;78.25;100282.25;5050809;28;20029;-67
2023/08/28 07:42:02;;;;;;;0.43;0.43;;;;;;;21.32;78.08;100283.44;5048585;28;20037;-66
2023/08/28 07:44:28;;;;;;;3.08;0.52;;;;;;;21.35;77.83;100288.81;5029598;28;20114;-66
2023/08/28 07:46:54;;;;;;;1.27;0.65;;;;;;;21.32;77.07;100289.69;5050416;28;20035;-66
2023/08/28 07:49:19;;;;;;;1.88;0.75;;;;;;;21.31;77.54;100296.34;5050547;28;20079;-66
2023/08/28 07:51:44;;;;;;;0.50;0.50;;;;;;;21.45;77.54;100298.69;5048937;28;20528;-66
2023/08/28 07:54:11;;;;;;;1.02;0.40;;;;;;;21.43;77.26;100300.31;5050538;28;20394;-66
2023/08/28 07:56:37;;;;;;;0.45;0.30;;;;;;;21.51;77.35;100298.91;5049015;28;20429;-66
2023/08/28 07:59:04;;;;;;;0.75;0.50;;;;;;;21.53;77.43;100302.75;5050190;28;20021;-66
2023/08/28 08:01:30;;;;;;;1.17;0.70;;;;;;;21.52;77.11;100305.94;5049624;28;20043;-66
2023/08/28 08:03:56;;;;;;;0.82;0.25;;;;;;;21.44;77.43;100308.13;5032256;28;20370;-66
2023/08/28 08:06:22;;;;;;;0.68;0.50;;;;;;;21.54;76.71;100312.50;5050185;28;20107;-66
2023/08/28 08:08:48;;;;;;;0.65;0.40;;;;;;;21.42;75.62;100313.28;5049701;28;20037;-66
2023/08/28 08:11:14;;;;;;;0.28;0.28;;;;;;;21.45;76.38;100322.56;5047353;28;20508;-67
2023/08/28 08:13:39;;;;;;;0.40;0.30;;;;;;;21.49;76.38;100323.25;5048444;28;20067;-66
2023/08/28 08:16:05;;;;;;;1.17;0.55;;;;;;;21.67;76.62;100326.22;5050108;28;20045;-66
2023/08/28 08:18:30;;;;;;;0.77;0.47;;;;;;;21.80;76.83;100335.25;5052197;28;20033;-66
2023/08/28 08:20:56;;;;;;;0.77;0.40;;;;;;;21.99;75.66;100330.75;5054061;28;20028;-66
2023/08/28 08:23:22;;;;;;;0.60;0.52;;;;;;;22.01;74.73;100337.31;5035592;28;20021;-66
2023/08/28 08:25:48;;;;;;;2.28;0.40;;;;;;;21.88;73.84;100325.59;5036243;28;20432;-67
2023/08/28 08:28:15;;;;;;;0.60;0.45;;;;;;;21.78;73.65;100321.19;5052370;28;20389;-66
2023/08/28 08:30:41;;;;;;;0.30;0.30;;;;;;;21.74;74.60;100320.50;5054255;28;20516;-66
2023/08/28 08:33:06;;;;;;;0.55;0.35;;;;;;;21.67;74.82;100319.97;5053233;28;20067;-67
2023/08/28 08:35:33;;;;;;;0.25;0.25;;;;;;;21.82;75.84;100321.09;5052922;28;20029;-66
2023/08/28 08:37:58;;;;;;;0.65;0.38;;;;;;;21.93;75.36;100330.53;5051467;28;20033;-66
2023/08/28 08:40:25;;;;;;;0.80;0.32;;;;;;;22.02;74.96;100340.84;5035957;28;20032;-67
2023/08/28 08:42:52;;;;;;;1.90;0.40;;;;;;;21.99;73.67;100330.75;5053535;28;20139;-66
2023/08/28 08:45:17;;;;;;;0.63;0.30;;;;;;;21.96;73.03;100337.09;5045546;28;20033;-66
2023/08/28 08:47:47;;;;;;;0.38;0.30;;;;;;;22.10;73.36;100331.97;5053815;28;20512;-66
2023/08/28 08:50:18;;;;;;;1.42;0.30;;;;;;;22.28;72.63;100325.88;5053699;28;20137;-66
2023/08/28 08:52:45;;;;;;;0.38;0.38;;;;;;;22.25;72.44;100326.75;5035376;28;20044;-66
2023/08/28 08:55:23;;;;;;;0.10;0.10;;;;;;;22.20;72.21;100330.06;5049701;28;20041;-66
2023/08/28 08:57:53;;;;;;;1.85;0.38;;;;;;;22.23;72.92;100329.97;5053764;28;20547;-66
2023/08/28 09:00:19;;;;;;;0.98;0.57;;;;;;;22.43;72.89;100333.19;5035718;28;20029;-67
2023/08/28 09:02:45;;;;;;;1.30;0.68;;;;;;;22.94;71.52;100341.28;5052707;28;20033;-66
2023/08/28 09:05:14;;;;;;;0.40;0.30;;;;;;;23.13;69.89;100335.47;5044816;28;20585;-66
2023/08/28 09:07:39;;;;;;;0.35;0.32;;;;;;;23.34;68.74;100336.72;5053232;28;20044;-66
2023/08/28 09:10:05;;;;;;;0.30;0.30;;;;;;;23.53;68.12;100334.81;5053497;28;20033;-66
2023/08/28 09:12:31;;;;;;;0.45;0.30;;;;;;;23.43;67.35;100325.78;5052925;28;20706;-66
2023/08/28 09:14:57;;;;;;;0.70;0.40;;;;;;;23.29;67.57;100318.00;5051546;28;20068;-66
2023/08/28 09:17:26;;;;;;;0.60;0.30;;;;;;;23.44;68.79;100323.78;5052736;28;20033;-66
2023/08/28 09:19:52;;;;;;;0.80;0.45;;;;;;;23.50;67.41;100331.00;5052973;28;20029;-66
2023/08/28 09:22:21;;;;;;;0.40;0.20;;;;;;;23.49;66.88;100328.69;5052617;28;20464;-67
2023/08/28 09:24:51;;;;;;;0.45;0.35;;;;;;;23.43;67.02;100334.00;5049815;28;20454;-67
2023/08/28 09:27:18;;;;;;;0.57;0.40;;;;;;;23.57;66.71;100321.72;5035094;28;20033;-66
2023/08/28 09:29:43;;;;;;;0.30;0.20;;;;;;;23.92;66.07;100339.59;5052256;28;20071;-67
2023/08/28 09:32:09;;;;;;;0.70;0.60;;;;;;;24.25;64.85;100345.38;5034252;28;20469;-66
2023/08/28 09:34:39;;;;;;;3.58;0.50;;;;;;;24.49;62.60;100344.34;5044493;28;20068;-66
2023/08/28 09:37:12;;;;;;;0.20;0.20;;;;;;;24.67;62.10;100336.09;5052178;28;20041;-67
2023/08/28 09:39:41;;;;;;;0.20;0.15;;;;;;;24.85;60.78;100338.88;5049033;28;20094;-66
2023/08/28 09:42:09;;;;;;;1.75;0.30;;;;;;;25.03;60.59;100340.84;5052347;28;20028;-66
2023/08/28 09:44:36;;;;;;;1.60;0.32;;;;;;;25.30;59.34;100342.81;5050534;28;20048;-66
2023/08/28 09:47:02;;;;;;;0.15;0.15;;;;;;;25.63;57.59;100343.66;5052185;28;20086;-66
2023/08/28 09:49:28;;;;;;;0.73;0.20;;;;;;;25.78;55.81;100352.81;5049342;28;20104;-67
2023/08/28 09:51:57;;;;;;;0.45;0.40;;;;;;;25.64;55.07;100353.47;5047199;28;20505;-66
2023/08/28 09:54:22;;;;;;;0.30;0.30;;;;;;;25.72;55.77;100352.69;5052610;28;20045;-66
2023/08/28 09:56:48;;;;;;;0.20;0.20;;;;;;;25.81;54.86;100349.13;5052456;28;20094;-66
2023/08/28 09:59:16;;;;;;;0.17;0.13;;;;;;;25.69;55.04;100350.84;5050851;28;20052;-67
2023/08/28 10:01:42;;;;;;;2.45;0.17;;;;;;;25.63;55.65;100349.94;5052095;28;20033;-66
2023/08/28 10:04:09;;;;;;;1.20;0.32;;;;;;;25.59;55.98;100357.63;5052155;28;20075;-66
2023/08/28 10:06:38;;;;;;;3.17;0.25;;;;;;;25.61;55.77;100348.91;5052436;28;20032;-66
2023/08/28 10:09:05;;;;;;;1.95;0.60;;;;;;;25.78;54.79;100348.06;5050066;28;20032;-67
2023/08/28 10:11:37;;;;;;;0.25;0.20;;;;;;;26.14;54.25;100341.63;5050353;28;20113;-66
2023/08/28 10:14:04;;;;;;;0.63;0.30;;;;;;;26.52;53.84;100344.44;5032963;28;20025;-66
2023/08/28 10:16:34;;;;;;;0.50;0.40;;;;;;;26.72;52.72;100350.19;5034155;28;20025;-67
2023/08/28 10:19:09;;;;;;;0.75;0.40;;;;;;;26.85;52.42;100346.41;5052022;28;20037;-66
2023/08/28 10:21:35;;;;;;;0.17;0.17;;;;;;;26.99;51.34;100348.41;5045253;28;20039;-67
2023/08/28 10:24:01;;;;;;;0.52;0.40;;;;;;;26.85;52.02;100354.69;5051538;28;20017;-67
2023/08/28 10:26:27;;;;;;;0.15;0.15;;;;;;;26.83;52.15;100349.63;5050242;28;20090;-67
2023/08/28 10:28:53;;;;;;;0.40;0.30;;;;;;;26.56;51.80;100358.09;5051795;28;20040;-66
2023/08/28 10:31:19;;;;;;;1.52;0.13;;;;;;;26.71;52.58;100351.41;5052015;28;20060;-66
2023/08/28 10:33:46;;;;;;;1.40;0.20;;;;;;;27.06;51.46;100348.06;5051492;28;20029;-66
2023/08/28 10:36:15;;;;;;;1.27;0.40;;;;;;;27.10;51.49;100352.16;5033523;28;20071;-67
2023/08/28 10:38:42;;;;;;;0.73;0.30;;;;;;;26.97;51.33;100348.13;5051578;28;20027;-66
2023/08/28 10:41:07;;;;;;;1.98;0.30;;;;;;;26.99;51.84;100349.19;5027417;28;20401;-67
2023/08/28 10:43:33;;;;;;;0.47;0.28;;;;;;;27.22;49.92;100344.81;5050870;28;20029;-67
2023/08/28 10:46:03;;;;;;;2.47;0.30;;;;;;;27.12;49.65;100355.19;5050284;28;20117;-67
2023/08/28 10:48:28;;;;;;;0.35;0.20;;;;;;;26.77;50.65;100349.50;5051464;28;20040;-67
2023/08/28 10:50:59;;;;;;;0.38;0.22;;;;;;;26.66;52.12;100346.50;5033376;28;20045;-66
2023/08/28 10:53:26;;;;;;;1.42;0.20;;;;;;;26.51;51.21;100342.94;5046293;28;20083;-67
2023/08/28 10:55:54;;;;;;;0.75;0.30;;;;;;;26.49;51.63;100348.16;5050045;28;20029;-67
2023/08/28 10:58:20;;;;;;;0.25;0.10;;;;;;;26.60;52.58;100345.63;5042479;28;20052;-67
2023/08/28 11:01:16;;;;;;;1.60;0.30;;;;;;;26.96;51.05;100355.66;5014912;28;20111;-67
2023/08/28 11:03:50;;;;;;;0.08;0.08;;;;;;;27.26;49.54;100354.44;5032479;28;20029;-67
2023/08/28 11:06:39;;;;;;;0.40;0.22;;;;;;;27.45;48.56;100341.22;5044511;28;20090;-66
2023/08/28 11:09:29;;;;;;;0.20;0.20;;;;;;;27.48;48.98;100335.50;5045535;28;20032;-67
2023/08/28 11:11:57;;;;;;;0.30;0.13;;;;;;;27.87;48.44;100338.13;5048877;28;20059;-67
2023/08/28 11:14:31;;;;;;;0.10;0.10;;;;;;;28.00;48.10;100325.50;5042625;28;20060;-67
2023/08/28 11:17:15;;;;;;;2.50;0.20;;;;;;;28.07;47.27;100336.16;5046911;28;20107;-66
2023/08/28 11:19:55;;;;;;;0.30;0.30;;;;;;;27.80;47.75;100328.19;5043239;28;20064;-66
2023/08/28 11:22:34;;;;;;;0.45;0.40;;;;;;;27.57;48.37;100323.53;5013543;28;20035;-67
2023/08/28 11:25:04;;;;;;;0.08;0.05;;;;;;;27.45;48.60;100316.31;5029714;28;20028;-67